DLH4RH EDDK-EDDG
Flight info
| Callsign | DLH4RH |
|---|---|
| Flight time | 0h 27m |
| Altitude | 9000 |
| Route | PODIP2Q PODIP Y867 BADGO/N0275F080 Z850 HMM HMM1A |
| Aircraft | A321/M-SDE3FGHIRWY/LB1 |
Departure
| Time | 2026-04-21 21:00 |
|---|---|
| Airport | Cologne Bonn Airport (EDDK) |
Arrival
| Time | 2026-04-21 21:28 |
|---|---|
| Airport | Münster Osnabrück Airport (EDDG) |
| Time | Latitude | Longitude | Altitude | Speed | Heading |
|---|---|---|---|---|---|
| 2026-04-21 20:56 | 50.88080 | 7.12362 | 235 ft | 0 kts | 118° |
| 2026-04-21 20:57 | 50.88076 | 7.12372 | 233 ft | 4 kts | 121° |
| 2026-04-21 20:57 | 50.88052 | 7.12435 | 233 ft | 9 kts | 121° |
| 2026-04-21 20:58 | 50.88014 | 7.12538 | 236 ft | 12 kts | 120° |
| 2026-04-21 20:58 | 50.87987 | 7.12652 | 236 ft | 10 kts | 92° |
| 2026-04-21 20:58 | 50.87996 | 7.12745 | 241 ft | 6 kts | 75° |
| 2026-04-21 20:58 | 50.87997 | 7.12750 | 236 ft | 0 kts | 75° |
| 2026-04-21 20:59 | 50.87999 | 7.12764 | 237 ft | 5 kts | 75° |
| 2026-04-21 20:59 | 50.88008 | 7.12843 | 239 ft | 9 kts | 86° |
| 2026-04-21 21:00 | 50.88004 | 7.12956 | 239 ft | 12 kts | 112° |
| 2026-04-21 21:00 | 50.87926 | 7.13085 | 239 ft | 31 kts | 137° |
| 2026-04-21 21:00 | 50.87429 | 7.13807 | 242 ft | 157 kts | 137° |
| 2026-04-21 21:00 | 50.86503 | 7.15119 | 1248 ft | 182 kts | 136° |
| 2026-04-21 21:01 | 50.85558 | 7.16428 | 2571 ft | 179 kts | 134° |
| 2026-04-21 21:01 | 50.84609 | 7.17739 | 3427 ft | 184 kts | 134° |
| 2026-04-21 21:01 | 50.83650 | 7.19123 | 4221 ft | 191 kts | 134° |
| 2026-04-21 21:01 | 50.82633 | 7.20593 | 4980 ft | 202 kts | 134° |
| 2026-04-21 21:02 | 50.81773 | 7.22368 | 5787 ft | 207 kts | 114° |
| 2026-04-21 21:02 | 50.81395 | 7.24571 | 6438 ft | 212 kts | 96° |
| 2026-04-21 21:02 | 50.81189 | 7.26958 | 6720 ft | 233 kts | 96° |
| 2026-04-21 21:02 | 50.80964 | 7.29595 | 7123 ft | 248 kts | 96° |
| 2026-04-21 21:03 | 50.80730 | 7.32352 | 7629 ft | 261 kts | 96° |
| 2026-04-21 21:03 | 50.80484 | 7.35233 | 8384 ft | 266 kts | 96° |
| 2026-04-21 21:03 | 50.80233 | 7.38145 | 9225 ft | 268 kts | 96° |
| 2026-04-21 21:03 | 50.79978 | 7.41068 | 10093 ft | 269 kts | 96° |
| 2026-04-21 21:04 | 50.79718 | 7.44043 | 10662 ft | 281 kts | 96° |
| 2026-04-21 21:04 | 50.79442 | 7.47225 | 10859 ft | 304 kts | 96° |
| 2026-04-21 21:04 | 50.79170 | 7.50659 | 10991 ft | 326 kts | 92° |
| 2026-04-21 21:04 | 50.79270 | 7.54270 | 11147 ft | 343 kts | 78° |
| 2026-04-21 21:05 | 50.80136 | 7.57820 | 11253 ft | 352 kts | 58° |
| 2026-04-21 21:05 | 50.81846 | 7.60718 | 11283 ft | 371 kts | 36° |
| 2026-04-21 21:05 | 50.84229 | 7.62343 | 11284 ft | 380 kts | 13° |
| 2026-04-21 21:05 | 50.86892 | 7.62337 | 11287 ft | 387 kts | 354° |
| 2026-04-21 21:06 | 50.89553 | 7.61673 | 11294 ft | 388 kts | 353° |
| 2026-04-21 21:06 | 50.92214 | 7.60979 | 11294 ft | 388 kts | 353° |
| 2026-04-21 21:06 | 50.94875 | 7.60274 | 11289 ft | 388 kts | 353° |
| 2026-04-21 21:06 | 50.97538 | 7.59571 | 11287 ft | 388 kts | 353° |
| 2026-04-21 21:07 | 51.00171 | 7.58886 | 11287 ft | 388 kts | 353° |
| 2026-04-21 21:07 | 51.02835 | 7.58201 | 11286 ft | 388 kts | 353° |
| 2026-04-21 21:07 | 51.05502 | 7.57525 | 11292 ft | 388 kts | 354° |
| 2026-04-21 21:07 | 51.08166 | 7.56847 | 11294 ft | 388 kts | 354° |
| 2026-04-21 21:08 | 51.10834 | 7.56164 | 11287 ft | 388 kts | 354° |
| 2026-04-21 21:08 | 51.13504 | 7.55478 | 11298 ft | 388 kts | 354° |
| 2026-04-21 21:08 | 51.16170 | 7.54793 | 11300 ft | 388 kts | 354° |
| 2026-04-21 21:08 | 51.18836 | 7.54107 | 11303 ft | 388 kts | 354° |
| 2026-04-21 21:09 | 51.21500 | 7.53420 | 11309 ft | 388 kts | 354° |
| 2026-04-21 21:09 | 51.24132 | 7.52741 | 11307 ft | 388 kts | 354° |
| 2026-04-21 21:09 | 51.26801 | 7.52051 | 11296 ft | 388 kts | 354° |
| 2026-04-21 21:09 | 51.29461 | 7.51365 | 11310 ft | 388 kts | 354° |
| 2026-04-21 21:10 | 51.32130 | 7.50676 | 11310 ft | 388 kts | 354° |
| 2026-04-21 21:10 | 51.34800 | 7.49985 | 11314 ft | 388 kts | 354° |
| 2026-04-21 21:10 | 51.37468 | 7.49290 | 11303 ft | 388 kts | 354° |
| 2026-04-21 21:10 | 51.40129 | 7.48595 | 11309 ft | 388 kts | 354° |
| 2026-04-21 21:11 | 51.42794 | 7.47900 | 11308 ft | 387 kts | 354° |
| 2026-04-21 21:11 | 51.45417 | 7.47218 | 11308 ft | 387 kts | 354° |
| 2026-04-21 21:11 | 51.48073 | 7.46527 | 11306 ft | 387 kts | 354° |
| 2026-04-21 21:11 | 51.50724 | 7.45835 | 11063 ft | 384 kts | 354° |
| 2026-04-21 21:12 | 51.53350 | 7.45145 | 10812 ft | 376 kts | 354° |
| 2026-04-21 21:12 | 51.55860 | 7.44475 | 10566 ft | 357 kts | 354° |
| 2026-04-21 21:12 | 51.58252 | 7.43838 | 10321 ft | 340 kts | 354° |
| 2026-04-21 21:12 | 51.60511 | 7.43237 | 10158 ft | 314 kts | 354° |
| 2026-04-21 21:13 | 51.62595 | 7.42680 | 10020 ft | 304 kts | 355° |
| 2026-04-21 21:13 | 51.64715 | 7.42135 | 9884 ft | 312 kts | 355° |
| 2026-04-21 21:13 | 51.66840 | 7.41592 | 9748 ft | 313 kts | 354° |
| 2026-04-21 21:13 | 51.69009 | 7.41032 | 9621 ft | 312 kts | 354° |
| 2026-04-21 21:14 | 51.71122 | 7.40479 | 9486 ft | 311 kts | 354° |
| 2026-04-21 21:14 | 51.73257 | 7.39915 | 9353 ft | 311 kts | 354° |
| 2026-04-21 21:14 | 51.75392 | 7.39351 | 9099 ft | 311 kts | 354° |
| 2026-04-21 21:14 | 51.77512 | 7.38790 | 8743 ft | 308 kts | 354° |
| 2026-04-21 21:15 | 51.79616 | 7.38230 | 8379 ft | 306 kts | 354° |
| 2026-04-21 21:15 | 51.81711 | 7.37673 | 8007 ft | 304 kts | 354° |
| 2026-04-21 21:15 | 51.83792 | 7.37121 | 7648 ft | 303 kts | 354° |
| 2026-04-21 21:15 | 51.85865 | 7.36573 | 7302 ft | 301 kts | 354° |
| 2026-04-21 21:16 | 51.87898 | 7.36032 | 6962 ft | 299 kts | 354° |
| 2026-04-21 21:16 | 51.89947 | 7.35483 | 6609 ft | 298 kts | 353° |
| 2026-04-21 21:16 | 51.91977 | 7.34939 | 6232 ft | 290 kts | 353° |
| 2026-04-21 21:16 | 51.93889 | 7.34421 | 5859 ft | 269 kts | 353° |
| 2026-04-21 21:17 | 51.95740 | 7.33925 | 5500 ft | 268 kts | 354° |
| 2026-04-21 21:17 | 51.97574 | 7.33441 | 5147 ft | 265 kts | 354° |
| 2026-04-21 21:17 | 51.99387 | 7.32961 | 4820 ft | 262 kts | 354° |
| 2026-04-21 21:17 | 52.01163 | 7.32499 | 4554 ft | 255 kts | 356° |
| 2026-04-21 21:18 | 52.02890 | 7.32585 | 4290 ft | 244 kts | 16° |
| 2026-04-21 21:18 | 52.04333 | 7.33812 | 4076 ft | 235 kts | 48° |
| 2026-04-21 21:18 | 52.05133 | 7.36091 | 4006 ft | 241 kts | 76° |
| 2026-04-21 21:18 | 52.05435 | 7.38972 | 4047 ft | 274 kts | 83° |
| 2026-04-21 21:19 | 52.05668 | 7.42117 | 4305 ft | 285 kts | 83° |
| 2026-04-21 21:19 | 52.05894 | 7.45346 | 4569 ft | 289 kts | 83° |
| 2026-04-21 21:19 | 52.06118 | 7.48604 | 4831 ft | 291 kts | 83° |
| 2026-04-21 21:19 | 52.06339 | 7.51891 | 4978 ft | 293 kts | 83° |
| 2026-04-21 21:20 | 52.06560 | 7.55188 | 5005 ft | 293 kts | 83° |
| 2026-04-21 21:20 | 52.06781 | 7.58479 | 5009 ft | 293 kts | 83° |
| 2026-04-21 21:20 | 52.06915 | 7.61741 | 5005 ft | 293 kts | 94° |
| 2026-04-21 21:20 | 52.06602 | 7.65014 | 5008 ft | 294 kts | 95° |
| 2026-04-21 21:21 | 52.06810 | 7.68291 | 5010 ft | 293 kts | 75° |
| 2026-04-21 21:21 | 52.07392 | 7.71458 | 4916 ft | 287 kts | 73° |
| 2026-04-21 21:21 | 52.07964 | 7.74394 | 4653 ft | 259 kts | 72° |
| 2026-04-21 21:21 | 52.08503 | 7.77124 | 4392 ft | 252 kts | 72° |
| 2026-04-21 21:22 | 52.09035 | 7.79797 | 4120 ft | 245 kts | 73° |
| 2026-04-21 21:22 | 52.09553 | 7.82375 | 3863 ft | 231 kts | 72° |
| 2026-04-21 21:22 | 52.10032 | 7.84743 | 3615 ft | 219 kts | 73° |
| 2026-04-21 21:22 | 52.10506 | 7.87065 | 3352 ft | 214 kts | 72° |
| 2026-04-21 21:23 | 52.10969 | 7.89330 | 3106 ft | 208 kts | 72° |
| 2026-04-21 21:23 | 52.11408 | 7.91492 | 3009 ft | 195 kts | 72° |
| 2026-04-21 21:23 | 52.11915 | 7.93490 | 3010 ft | 185 kts | 58° |
| 2026-04-21 21:23 | 52.12845 | 7.94848 | 3019 ft | 181 kts | 31° |
| 2026-04-21 21:24 | 52.14075 | 7.95269 | 3033 ft | 185 kts | 4° |
| 2026-04-21 21:24 | 52.15349 | 7.94847 | 2995 ft | 191 kts | 343° |
| 2026-04-21 21:24 | 52.16471 | 7.93706 | 2960 ft | 196 kts | 322° |
| 2026-04-21 21:24 | 52.17296 | 7.91915 | 2870 ft | 201 kts | 299° |
| 2026-04-21 21:25 | 52.17651 | 7.89714 | 2708 ft | 203 kts | 274° |
| 2026-04-21 21:25 | 52.17452 | 7.87460 | 2477 ft | 201 kts | 250° |
| 2026-04-21 21:25 | 52.16998 | 7.85309 | 2209 ft | 201 kts | 250° |
| 2026-04-21 21:25 | 52.16549 | 7.83162 | 1932 ft | 200 kts | 250° |
| 2026-04-21 21:26 | 52.16122 | 7.81123 | 1668 ft | 179 kts | 250° |
| 2026-04-21 21:26 | 52.15737 | 7.79286 | 1434 ft | 165 kts | 250° |
| 2026-04-21 21:26 | 52.15378 | 7.77567 | 1218 ft | 158 kts | 251° |
| 2026-04-21 21:26 | 52.15024 | 7.75902 | 1014 ft | 153 kts | 251° |
| 2026-04-21 21:27 | 52.14690 | 7.74315 | 814 ft | 148 kts | 251° |
| 2026-04-21 21:27 | 52.14362 | 7.72753 | 618 ft | 144 kts | 251° |
| 2026-04-21 21:27 | 52.14036 | 7.71212 | 408 ft | 144 kts | 251° |
| 2026-04-21 21:27 | 52.13714 | 7.69683 | 222 ft | 142 kts | 252° |
| 2026-04-21 21:28 | 52.13419 | 7.68272 | 169 ft | 101 kts | 251° |
| 2026-04-21 21:28 | 52.13281 | 7.67622 | 166 ft | 37 kts | 251° |
| 2026-04-21 21:28 | 52.13123 | 7.67052 | 167 ft | 16 kts | 184° |
| 2026-04-21 21:29 | 52.13035 | 7.67157 | 168 ft | 18 kts | 115° |
| 2026-04-21 21:29 | 52.13050 | 7.67355 | 168 ft | 19 kts | 72° |
| 2026-04-21 21:29 | 52.13096 | 7.67574 | 168 ft | 22 kts | 71° |
| 2026-04-21 21:29 | 52.13150 | 7.67827 | 168 ft | 25 kts | 70° |
| 2026-04-21 21:30 | 52.13211 | 7.68109 | 168 ft | 28 kts | 71° |
| 2026-04-21 21:30 | 52.13277 | 7.68421 | 168 ft | 30 kts | 71° |
| 2026-04-21 21:30 | 52.13348 | 7.68756 | 168 ft | 31 kts | 71° |
| 2026-04-21 21:30 | 52.13412 | 7.69058 | 168 ft | 27 kts | 71° |
| 2026-04-21 21:31 | 52.13398 | 7.69241 | 168 ft | 17 kts | 154° |
| 2026-04-21 21:31 | 52.13279 | 7.69307 | 168 ft | 17 kts | 161° |
| 2026-04-21 21:31 | 52.13253 | 7.69447 | 168 ft | 16 kts | 71° |
| 2026-04-21 21:31 | 52.13267 | 7.69553 | 168 ft | 2 kts | 130° |
| 2026-04-21 21:32 | 52.13229 | 7.69552 | 168 ft | 8 kts | 193° |
| 2026-04-21 21:32 | 52.13204 | 7.69540 | 168 ft | 0 kts | 197° |